sensor_id;sensor_type;location;lat;lon;timestamp;pressure;altitude;pressure_sealevel;temperature;humidity
52291;BME280;39663;45.432;28.050;2024-01-11T00:01:09;102411.22;;;10.10;36.71
52291;BME280;39663;45.432;28.050;2024-01-11T00:01:45;102413.71;;;10.14;36.78
52291;BME280;39663;45.432;28.050;2024-01-11T00:02:17;102411.51;;;10.17;36.71
52291;BME280;39663;45.432;28.050;2024-01-11T00:02:49;102412.53;;;10.21;36.78
52291;BME280;39663;45.432;28.050;2024-01-11T00:03:20;102409.56;;;10.43;36.62
52291;BME280;39663;45.432;28.050;2024-01-11T00:03:52;102407.83;;;10.42;36.31
52291;BME280;39663;45.432;28.050;2024-01-11T00:04:25;102407.24;;;10.19;36.55
52291;BME280;39663;45.432;28.050;2024-01-11T00:04:56;102406.82;;;10.40;36.55
52291;BME280;39663;45.432;28.050;2024-01-11T00:05:28;102406.25;;;10.23;36.50
52291;BME280;39663;45.432;28.050;2024-01-11T00:06:05;102406.79;;;10.24;36.44
52291;BME280;39663;45.432;28.050;2024-01-11T00:06:53;102408.85;;;10.24;36.50
52291;BME280;39663;45.432;28.050;2024-01-11T00:07:28;102408.77;;;10.10;36.38
52291;BME280;39663;45.432;28.050;2024-01-11T00:08:04;102408.85;;;10.27;36.41
52291;BME280;39663;45.432;28.050;2024-01-11T00:08:37;102410.68;;;10.25;36.33
52291;BME280;39663;45.432;28.050;2024-01-11T00:09:10;102410.73;;;10.34;36.24
52291;BME280;39663;45.432;28.050;2024-01-11T00:09:42;102409.03;;;10.30;36.29
52291;BME280;39663;45.432;28.050;2024-01-11T00:10:15;102410.44;;;10.31;36.24
52291;BME280;39663;45.432;28.050;2024-01-11T00:10:49;102408.86;;;10.27;36.27
52291;BME280;39663;45.432;28.050;2024-01-11T00:11:21;102408.04;;;10.27;36.27
52291;BME280;39663;45.432;28.050;2024-01-11T00:11:54;102409.48;;;10.29;36.29
52291;BME280;39663;45.432;28.050;2024-01-11T00:12:31;102408.12;;;10.30;36.23
52291;BME280;39663;45.432;28.050;2024-01-11T00:13:03;102406.99;;;10.30;36.21
52291;BME280;39663;45.432;28.050;2024-01-11T00:13:35;102405.26;;;10.26;36.29
52291;BME280;39663;45.432;28.050;2024-01-11T00:14:08;102405.14;;;10.31;36.26
52291;BME280;39663;45.432;28.050;2024-01-11T00:14:40;102406.31;;;10.31;36.18
52291;BME280;39663;45.432;28.050;2024-01-11T00:15:14;102406.05;;;10.50;36.22
52291;BME280;39663;45.432;28.050;2024-01-11T00:15:46;102403.79;;;10.24;36.27
52291;BME280;39663;45.432;28.050;2024-01-11T00:16:18;102405.87;;;10.21;36.15
52291;BME280;39663;45.432;28.050;2024-01-11T00:17:23;102404.08;;;10.40;36.08
52291;BME280;39663;45.432;28.050;2024-01-11T00:18:00;102404.00;;;10.20;36.11
52291;BME280;39663;45.432;28.050;2024-01-11T00:18:32;102404.53;;;10.18;36.16
52291;BME280;39663;45.432;28.050;2024-01-11T00:19:07;102403.49;;;10.18;36.23
52291;BME280;39663;45.432;28.050;2024-01-11T00:19:38;102404.63;;;10.16;36.28
52291;BME280;39663;45.432;28.050;2024-01-11T00:20:10;102405.89;;;10.14;36.33
52291;BME280;39663;45.432;28.050;2024-01-11T00:20:42;102406.07;;;10.40;36.33
52291;BME280;39663;45.432;28.050;2024-01-11T00:21:14;102407.76;;;10.15;36.32
52291;BME280;39663;45.432;28.050;2024-01-11T00:21:48;102404.74;;;10.32;36.31
52291;BME280;39663;45.432;28.050;2024-01-11T00:22:19;102402.72;;;10.31;36.35
52291;BME280;39663;45.432;28.050;2024-01-11T00:22:51;102404.64;;;10.13;36.29
52291;BME280;39663;45.432;28.050;2024-01-11T00:23:22;102403.95;;;10.16;36.31
52291;BME280;39663;45.432;28.050;2024-01-11T00:23:54;102402.79;;;10.08;36.22
52291;BME280;39663;45.432;28.050;2024-01-11T00:24:25;102402.94;;;10.07;36.38
52291;BME280;39663;45.432;28.050;2024-01-11T00:24:58;102405.10;;;10.05;36.45
52291;BME280;39663;45.432;28.050;2024-01-11T00:25:29;102404.20;;;10.03;36.44
52291;BME280;39663;45.432;28.050;2024-01-11T00:26:02;102403.63;;;10.22;36.50
52291;BME280;39663;45.432;28.050;2024-01-11T00:26:34;102402.20;;;10.01;36.45
52291;BME280;39663;45.432;28.050;2024-01-11T00:27:05;102402.37;;;10.05;36.58
52291;BME280;39663;45.432;28.050;2024-01-11T00:27:37;102402.75;;;10.18;36.52
52291;BME280;39663;45.432;28.050;2024-01-11T00:28:09;102404.90;;;9.97;37.25
52291;BME280;39663;45.432;28.050;2024-01-11T00:28:40;102403.78;;;9.90;37.88
52291;BME280;39663;45.432;28.050;2024-01-11T00:29:12;102403.98;;;9.94;38.03
52291;BME280;39663;45.432;28.050;2024-01-11T00:29:46;102403.76;;;10.00;37.98
52291;BME280;39663;45.432;28.050;2024-01-11T00:30:17;102405.24;;;10.18;38.03
52291;BME280;39663;45.432;28.050;2024-01-11T00:30:51;102404.56;;;10.27;37.91
52291;BME280;39663;45.432;28.050;2024-01-11T00:31:22;102402.48;;;10.04;38.42
52291;BME280;39663;45.432;28.050;2024-01-11T00:31:54;102401.24;;;10.11;40.58
52291;BME280;39663;45.432;28.050;2024-01-11T00:32:27;102401.65;;;10.27;41.62
52291;BME280;39663;45.432;28.050;2024-01-11T00:33:01;102405.14;;;10.57;41.75
52291;BME280;39663;45.432;28.050;2024-01-11T00:33:33;102405.36;;;10.47;41.35
52291;BME280;39663;45.432;28.050;2024-01-11T00:34:07;102404.72;;;10.47;41.18
52291;BME280;39663;45.432;28.050;2024-01-11T00:34:39;102401.80;;;10.51;41.06
52291;BME280;39663;45.432;28.050;2024-01-11T00:35:11;102403.12;;;10.37;41.08
52291;BME280;39663;45.432;28.050;2024-01-11T00:35:44;102403.92;;;10.54;41.34
52291;BME280;39663;45.432;28.050;2024-01-11T00:36:18;102402.25;;;10.63;41.30
52291;BME280;39663;45.432;28.050;2024-01-11T00:36:50;102402.67;;;10.69;41.37
52291;BME280;39663;45.432;28.050;2024-01-11T00:37:22;102401.46;;;10.75;41.50
52291;BME280;39663;45.432;28.050;2024-01-11T00:37:54;102400.88;;;10.48;41.57
52291;BME280;39663;45.432;28.050;2024-01-11T00:38:25;102402.68;;;10.71;41.66
52291;BME280;39663;45.432;28.050;2024-01-11T00:38:57;102401.02;;;10.76;41.62
52291;BME280;39663;45.432;28.050;2024-01-11T00:39:29;102401.99;;;10.78;41.66
52291;BME280;39663;45.432;28.050;2024-01-11T00:40:02;102403.36;;;10.80;41.63
52291;BME280;39663;45.432;28.050;2024-01-11T00:40:36;102403.35;;;10.78;41.60
52291;BME280;39663;45.432;28.050;2024-01-11T00:41:09;102401.52;;;10.77;41.60
52291;BME280;39663;45.432;28.050;2024-01-11T00:41:41;102403.05;;;10.78;41.59
52291;BME280;39663;45.432;28.050;2024-01-11T00:42:12;102403.56;;;10.80;41.40
52291;BME280;39663;45.432;28.050;2024-01-11T00:42:44;102401.89;;;10.82;41.54
52291;BME280;39663;45.432;28.050;2024-01-11T00:43:16;102402.34;;;10.54;41.72
52291;BME280;39663;45.432;28.050;2024-01-11T00:43:49;102401.59;;;10.80;41.65
52291;BME280;39663;45.432;28.050;2024-01-11T00:44:25;102400.71;;;10.77;41.65
52291;BME280;39663;45.432;28.050;2024-01-11T00:44:56;102401.69;;;10.80;41.76
52291;BME280;39663;45.432;28.050;2024-01-11T00:45:28;102401.73;;;10.78;41.56
52291;BME280;39663;45.432;28.050;2024-01-11T00:46:00;102401.46;;;10.84;41.69
52291;BME280;39663;45.432;28.050;2024-01-11T00:46:32;102402.73;;;10.80;41.70
52291;BME280;39663;45.432;28.050;2024-01-11T00:47:04;102401.19;;;10.97;41.77
52291;BME280;39663;45.432;28.050;2024-01-11T00:47:36;102402.99;;;10.84;41.58
52291;BME280;39663;45.432;28.050;2024-01-11T00:48:07;102402.51;;;10.64;41.62
52291;BME280;39663;45.432;28.050;2024-01-11T00:48:39;102401.55;;;10.83;41.50
52291;BME280;39663;45.432;28.050;2024-01-11T00:49:11;102399.12;;;10.82;41.76
52291;BME280;39663;45.432;28.050;2024-01-11T00:49:44;102400.15;;;10.64;41.78
52291;BME280;39663;45.432;28.050;2024-01-11T00:50:15;102400.12;;;10.65;41.51
52291;BME280;39663;45.432;28.050;2024-01-11T00:50:49;102397.31;;;10.78;41.63
52291;BME280;39663;45.432;28.050;2024-01-11T00:51:21;102398.82;;;10.77;41.72
52291;BME280;39663;45.432;28.050;2024-01-11T00:51:52;102397.22;;;10.74;41.96
52291;BME280;39663;45.432;28.050;2024-01-11T00:52:23;102398.44;;;10.73;41.97
52291;BME280;39663;45.432;28.050;2024-01-11T00:52:58;102398.56;;;10.77;41.83
52291;BME280;39663;45.432;28.050;2024-01-11T00:53:29;102398.59;;;10.77;41.68
52291;BME280;39663;45.432;28.050;2024-01-11T00:54:01;102396.67;;;10.73;41.70
52291;BME280;39663;45.432;28.050;2024-01-11T00:54:33;102397.33;;;10.69;41.91
52291;BME280;39663;45.432;28.050;2024-01-11T00:55:07;102398.87;;;10.76;41.71
52291;BME280;39663;45.432;28.050;2024-01-11T00:55:38;102396.50;;;10.70;41.84
52291;BME280;39663;45.432;28.050;2024-01-11T00:56:16;102395.65;;;10.71;41.71
52291;BME280;39663;45.432;28.050;2024-01-11T00:56:48;102395.34;;;10.67;41.68
52291;BME280;39663;45.432;28.050;2024-01-11T00:57:21;102396.35;;;10.72;41.31
52291;BME280;39663;45.432;28.050;2024-01-11T00:57:53;102394.42;;;10.66;41.60
52291;BME280;39663;45.432;28.050;2024-01-11T00:58:26;102394.20;;;10.62;41.75
52291;BME280;39663;45.432;28.050;2024-01-11T00:58:58;102395.12;;;10.58;41.88
52291;BME280;39663;45.432;28.050;2024-01-11T01:07:10;102389.65;;;10.51;42.84
52291;BME280;39663;45.432;28.050;2024-01-11T01:07:41;102389.37;;;10.55;43.04
52291;BME280;39663;45.432;28.050;2024-01-11T01:08:13;102389.39;;;10.59;43.09
52291;BME280;39663;45.432;28.050;2024-01-11T01:08:44;102389.71;;;10.86;42.90
52291;BME280;39663;45.432;28.050;2024-01-11T01:09:16;102386.61;;;10.71;42.88
52291;BME280;39663;45.432;28.050;2024-01-11T01:09:47;102387.22;;;10.69;42.90
52291;BME280;39663;45.432;28.050;2024-01-11T01:10:18;102385.17;;;10.99;42.88
52291;BME280;39663;45.432;28.050;2024-01-11T01:10:50;102386.69;;;10.84;42.88
52291;BME280;39663;45.432;28.050;2024-01-11T01:11:21;102383.79;;;10.92;42.82
52291;BME280;39663;45.432;28.050;2024-01-11T01:11:53;102381.04;;;10.89;42.80
52291;BME280;39663;45.432;28.050;2024-01-11T01:12:24;102381.37;;;10.96;42.61
52291;BME280;39663;45.432;28.050;2024-01-11T01:12:56;102381.97;;;10.93;42.72
52291;BME280;39663;45.432;28.050;2024-01-11T01:13:27;102380.33;;;11.10;42.65
52291;BME280;39663;45.432;28.050;2024-01-11T01:13:59;102378.69;;;11.32;42.53
52291;BME280;39663;45.432;28.050;2024-01-11T01:14:30;102378.64;;;10.90;42.46
52291;BME280;39663;45.432;28.050;2024-01-11T01:15:01;102378.49;;;11.13;42.37
52291;BME280;39663;45.432;28.050;2024-01-11T01:15:33;102380.58;;;11.19;42.23
52291;BME280;39663;45.432;28.050;2024-01-11T01:16:04;102377.66;;;11.00;42.18
52291;BME280;39663;45.432;28.050;2024-01-11T01:16:36;102378.33;;;11.00;42.19
52291;BME280;39663;45.432;28.050;2024-01-11T01:17:07;102376.16;;;11.30;42.24
52291;BME280;39663;45.432;28.050;2024-01-11T01:17:38;102378.24;;;11.29;42.05
52291;BME280;39663;45.432;28.050;2024-01-11T01:18:10;102377.21;;;11.29;41.96
52291;BME280;39663;45.432;28.050;2024-01-11T01:18:41;102374.15;;;11.33;42.07
52291;BME280;39663;45.432;28.050;2024-01-11T01:19:12;102373.57;;;11.11;41.99
52291;BME280;39663;45.432;28.050;2024-01-11T01:19:44;102372.42;;;10.99;41.97
52291;BME280;39663;45.432;28.050;2024-01-11T01:20:16;102372.49;;;11.33;41.82
52291;BME280;39663;45.432;28.050;2024-01-11T01:20:47;102371.92;;;11.18;41.92
52291;BME280;39663;45.432;28.050;2024-01-11T01:21:18;102370.93;;;11.04;41.84
52291;BME280;39663;45.432;28.050;2024-01-11T01:21:50;102368.52;;;11.41;41.94
52291;BME280;39663;45.432;28.050;2024-01-11T01:22:21;102369.10;;;11.33;41.85
52291;BME280;39663;45.432;28.050;2024-01-11T01:22:52;102368.93;;;11.15;41.75
52291;BME280;39663;45.432;28.050;2024-01-11T01:23:24;102368.07;;;10.98;41.84
52291;BME280;39663;45.432;28.050;2024-01-11T01:23:55;102368.13;;;11.25;42.05
52291;BME280;39663;45.432;28.050;2024-01-11T01:24:27;102367.53;;;11.26;41.73
52291;BME280;39663;45.432;28.050;2024-01-11T01:24:58;102365.50;;;11.55;41.59
52291;BME280;39663;45.432;28.050;2024-01-11T01:25:29;102366.51;;;11.10;41.60
52291;BME280;39663;45.432;28.050;2024-01-11T01:26:01;102363.68;;;11.20;41.78
52291;BME280;39663;45.432;28.050;2024-01-11T01:26:32;102363.44;;;11.14;41.75
52291;BME280;39663;45.432;28.050;2024-01-11T01:27:04;102361.88;;;11.21;41.41
52291;BME280;39663;45.432;28.050;2024-01-11T01:27:36;102361.53;;;11.39;41.41
52291;BME280;39663;45.432;28.050;2024-01-11T01:28:07;102360.74;;;11.34;41.59
52291;BME280;39663;45.432;28.050;2024-01-11T01:28:38;102358.18;;;11.57;41.75
52291;BME280;39663;45.432;28.050;2024-01-11T01:29:10;102359.63;;;11.39;41.52
52291;BME280;39663;45.432;28.050;2024-01-11T01:29:41;102357.12;;;11.52;41.70
52291;BME280;39663;45.432;28.050;2024-01-11T01:30:13;102359.98;;;11.36;41.38
52291;BME280;39663;45.432;28.050;2024-01-11T01:30:44;102358.75;;;11.11;41.37
52291;BME280;39663;45.432;28.050;2024-01-11T01:31:15;102356.12;;;11.51;41.63
52291;BME280;39663;45.432;28.050;2024-01-11T01:31:47;102352.13;;;11.17;41.71
52291;BME280;39663;45.432;28.050;2024-01-11T01:32:18;102357.80;;;11.07;41.22
52291;BME280;39663;45.432;28.050;2024-01-11T01:32:50;102357.30;;;11.44;41.46
52291;BME280;39663;45.432;28.050;2024-01-11T01:33:21;102356.37;;;11.46;41.72
52291;BME280;39663;45.432;28.050;2024-01-11T01:33:53;102350.86;;;11.11;41.59
52291;BME280;39663;45.432;28.050;2024-01-11T01:34:24;102352.43;;;11.11;41.22
52291;BME280;39663;45.432;28.050;2024-01-11T01:34:55;102353.21;;;11.13;41.19
52291;BME280;39663;45.432;28.050;2024-01-11T01:35:27;102349.41;;;11.27;41.63
52291;BME280;39663;45.432;28.050;2024-01-11T01:35:58;102350.40;;;11.05;41.89
52291;BME280;39663;45.432;28.050;2024-01-11T01:36:29;102347.38;;;11.11;41.65
52291;BME280;39663;45.432;28.050;2024-01-11T01:37:01;102347.43;;;11.32;41.71
52291;BME280;39663;45.432;28.050;2024-01-11T01:37:32;102349.43;;;11.07;41.63
52291;BME280;39663;45.432;28.050;2024-01-11T01:38:04;102346.22;;;11.42;41.50
52291;BME280;39663;45.432;28.050;2024-01-11T01:38:35;102347.53;;;11.09;41.69
52291;BME280;39663;45.432;28.050;2024-01-11T01:39:06;102345.31;;;11.25;41.51
52291;BME280;39663;45.432;28.050;2024-01-11T01:39:38;102346.28;;;11.04;41.73
52291;BME280;39663;45.432;28.050;2024-01-11T01:40:10;102344.82;;;11.22;41.84
52291;BME280;39663;45.432;28.050;2024-01-11T01:40:42;102341.55;;;11.34;41.78
52291;BME280;39663;45.432;28.050;2024-01-11T01:41:13;102341.96;;;11.11;41.49
52291;BME280;39663;45.432;28.050;2024-01-11T01:41:45;102342.21;;;11.27;41.72
52291;BME280;39663;45.432;28.050;2024-01-11T01:42:16;102340.45;;;11.34;41.74
52291;BME280;39663;45.432;28.050;2024-01-11T01:42:48;102335.64;;;11.25;41.66
52291;BME280;39663;45.432;28.050;2024-01-11T01:43:20;102337.06;;;11.05;41.57
52291;BME280;39663;45.432;28.050;2024-01-11T01:43:51;102337.19;;;11.27;41.50
52291;BME280;39663;45.432;28.050;2024-01-11T01:44:22;102338.39;;;11.01;41.60
52291;BME280;39663;45.432;28.050;2024-01-11T01:44:54;102333.84;;;11.00;41.82
52291;BME280;39663;45.432;28.050;2024-01-11T01:45:25;102331.55;;;11.01;41.97
52291;BME280;39663;45.432;28.050;2024-01-11T01:45:57;102330.38;;;11.00;41.78
52291;BME280;39663;45.432;28.050;2024-01-11T01:46:29;102332.13;;;11.37;41.50
52291;BME280;39663;45.432;28.050;2024-01-11T01:47:01;102328.81;;;11.04;41.85
52291;BME280;39663;45.432;28.050;2024-01-11T01:47:34;102328.76;;;11.20;41.97
52291;BME280;39663;45.432;28.050;2024-01-11T01:48:08;102329.36;;;11.37;41.80
52291;BME280;39663;45.432;28.050;2024-01-11T01:48:39;102329.28;;;10.97;41.78
52291;BME280;39663;45.432;28.050;2024-01-11T01:49:12;102327.66;;;11.22;41.93
52291;BME280;39663;45.432;28.050;2024-01-11T01:49:45;102324.24;;;11.01;42.08
52291;BME280;39663;45.432;28.050;2024-01-11T01:50:19;102324.41;;;11.25;42.04
52291;BME280;39663;45.432;28.050;2024-01-11T01:50:50;102321.78;;;11.41;41.97
52291;BME280;39663;45.432;28.050;2024-01-11T01:51:26;102321.24;;;11.35;41.96
52291;BME280;39663;45.432;28.050;2024-01-11T01:51:59;102321.13;;;10.95;41.97
52291;BME280;39663;45.432;28.050;2024-01-11T01:52:31;102320.04;;;11.19;42.12
52291;BME280;39663;45.432;28.050;2024-01-11T01:53:04;102317.24;;;11.34;42.09
52291;BME280;39663;45.432;28.050;2024-01-11T01:53:35;102315.72;;;11.08;41.99
52291;BME280;39663;45.432;28.050;2024-01-11T01:54:07;102316.66;;;11.09;42.11
52291;BME280;39663;45.432;28.050;2024-01-11T01:54:39;102315.62;;;11.18;42.09
52291;BME280;39663;45.432;28.050;2024-01-11T01:55:10;102312.49;;;11.17;42.19
52291;BME280;39663;45.432;28.050;2024-01-11T01:55:43;102313.40;;;11.36;42.15
52291;BME280;39663;45.432;28.050;2024-01-11T01:56:17;102312.84;;;10.92;42.01
52291;BME280;39663;45.432;28.050;2024-01-11T01:56:52;102313.35;;;10.88;42.09
52291;BME280;39663;45.432;28.050;2024-01-11T01:57:26;102314.05;;;11.26;42.29
52291;BME280;39663;45.432;28.050;2024-01-11T01:57:59;102315.00;;;11.26;42.05
52291;BME280;39663;45.432;28.050;2024-01-11T01:58:31;102314.86;;;11.27;42.23
52291;BME280;39663;45.432;28.050;2024-01-11T01:59:13;102315.97;;;10.93;42.05
52291;BME280;39663;45.432;28.050;2024-01-11T01:59:50;102320.10;;;10.89;42.27
52291;BME280;39663;45.432;28.050;2024-01-11T02:00:23;102319.73;;;11.07;42.33
52291;BME280;39663;45.432;28.050;2024-01-11T02:00:55;102319.47;;;11.03;42.42
52291;BME280;39663;45.432;28.050;2024-01-11T02:01:27;102320.79;;;10.79;42.29
52291;BME280;39663;45.432;28.050;2024-01-11T02:01:59;102320.28;;;11.16;42.23
52291;BME280;39663;45.432;28.050;2024-01-11T02:02:31;102318.43;;;11.21;42.37
52291;BME280;39663;45.432;28.050;2024-01-11T02:03:05;102318.76;;;11.06;42.37
52291;BME280;39663;45.432;28.050;2024-01-11T02:03:40;102316.69;;;10.79;42.23
52291;BME280;39663;45.432;28.050;2024-01-11T02:04:12;102314.97;;;11.25;42.34
52291;BME280;39663;45.432;28.050;2024-01-11T02:04:44;102313.95;;;11.08;42.35
52291;BME280;39663;45.432;28.050;2024-01-11T02:05:16;102309.50;;;11.22;42.14
52291;BME280;39663;45.432;28.050;2024-01-11T02:05:49;102309.70;;;11.26;42.33
52291;BME280;39663;45.432;28.050;2024-01-11T02:06:22;102308.97;;;10.95;42.32
52291;BME280;39663;45.432;28.050;2024-01-11T02:06:57;102308.48;;;10.98;42.08
52291;BME280;39663;45.432;28.050;2024-01-11T02:07:29;102305.91;;;10.77;42.01
52291;BME280;39663;45.432;28.050;2024-01-11T02:08:01;102308.26;;;10.94;41.84
52291;BME280;39663;45.432;28.050;2024-01-11T02:08:35;102306.35;;;10.70;42.06
52291;BME280;39663;45.432;28.050;2024-01-11T02:09:07;102305.86;;;10.91;42.45
52291;BME280;39663;45.432;28.050;2024-01-11T02:09:40;102306.36;;;10.73;42.53
52291;BME280;39663;45.432;28.050;2024-01-11T02:10:13;102304.70;;;11.09;42.30
52291;BME280;39663;45.432;28.050;2024-01-11T02:10:45;102302.91;;;11.05;42.40
52291;BME280;39663;45.432;28.050;2024-01-11T02:11:17;102302.12;;;10.62;42.15
52291;BME280;39663;45.432;28.050;2024-01-11T02:11:49;102300.54;;;11.11;42.20
52291;BME280;39663;45.432;28.050;2024-01-11T02:12:22;102296.94;;;10.87;42.35
52291;BME280;39663;45.432;28.050;2024-01-11T02:12:55;102297.64;;;10.91;42.34
52291;BME280;39663;45.432;28.050;2024-01-11T02:13:27;102296.69;;;11.07;42.34
52291;BME280;39663;45.432;28.050;2024-01-11T02:13:59;102295.84;;;10.92;42.30
52291;BME280;39663;45.432;28.050;2024-01-11T02:14:31;102294.48;;;11.01;42.58
52291;BME280;39663;45.432;28.050;2024-01-11T02:15:04;102295.19;;;11.02;42.53
52291;BME280;39663;45.432;28.050;2024-01-11T02:15:37;102294.05;;;10.98;42.49
52291;BME280;39663;45.432;28.050;2024-01-11T02:16:08;102291.78;;;10.81;42.71
52291;BME280;39663;45.432;28.050;2024-01-11T02:16:40;102291.16;;;10.81;42.79
52291;BME280;39663;45.432;28.050;2024-01-11T02:17:11;102290.60;;;10.87;42.83
52291;BME280;39663;45.432;28.050;2024-01-11T02:17:43;102289.86;;;10.77;42.74
52291;BME280;39663;45.432;28.050;2024-01-11T02:18:14;102289.14;;;11.02;42.94
52291;BME280;39663;45.432;28.050;2024-01-11T02:18:46;102285.10;;;10.86;42.75
52291;BME280;39663;45.432;28.050;2024-01-11T02:19:19;102284.77;;;11.04;42.90
52291;BME280;39663;45.432;28.050;2024-01-11T02:19:51;102285.88;;;10.69;42.87
52291;BME280;39663;45.432;28.050;2024-01-11T02:20:22;102285.93;;;10.95;43.21
52291;BME280;39663;45.432;28.050;2024-01-11T02:20:54;102285.07;;;10.53;43.29
52291;BME280;39663;45.432;28.050;2024-01-11T02:21:27;102283.44;;;10.97;43.30
52291;BME280;39663;45.432;28.050;2024-01-11T02:22:05;102286.10;;;10.89;43.24
52291;BME280;39663;45.432;28.050;2024-01-11T02:22:42;102281.22;;;10.97;43.41
52291;BME280;39663;45.432;28.050;2024-01-11T02:23:21;102279.05;;;10.99;43.49
52291;BME280;39663;45.432;28.050;2024-01-11T02:24:03;102276.40;;;10.79;43.61
52291;BME280;39663;45.432;28.050;2024-01-11T02:24:35;102276.96;;;10.97;43.61
52291;BME280;39663;45.432;28.050;2024-01-11T02:25:09;102274.88;;;11.02;43.71
52291;BME280;39663;45.432;28.050;2024-01-11T02:25:40;102274.53;;;10.69;43.60
52291;BME280;39663;45.432;28.050;2024-01-11T02:26:13;102271.88;;;10.65;43.67
52291;BME280;39663;45.432;28.050;2024-01-11T02:26:58;102272.39;;;11.00;43.79
52291;BME280;39663;45.432;28.050;2024-01-11T02:27:30;102270.04;;;10.90;43.78
52291;BME280;39663;45.432;28.050;2024-01-11T02:28:01;102270.33;;;11.15;43.82
52291;BME280;39663;45.432;28.050;2024-01-11T02:28:35;102270.55;;;10.66;43.72
52291;BME280;39663;45.432;28.050;2024-01-11T02:29:07;102268.97;;;10.94;43.72
52291;BME280;39663;45.432;28.050;2024-01-11T02:29:44;102269.84;;;10.90;43.55
52291;BME280;39663;45.432;28.050;2024-01-11T02:30:16;102270.74;;;11.11;43.36
52291;BME280;39663;45.432;28.050;2024-01-11T02:30:47;102270.75;;;11.09;43.46
52291;BME280;39663;45.432;28.050;2024-01-11T02:31:22;102270.62;;;10.91;43.48
52291;BME280;39663;45.432;28.050;2024-01-11T02:32:01;102268.83;;;10.96;43.44
52291;BME280;39663;45.432;28.050;2024-01-11T02:32:35;102269.10;;;11.24;43.35
52291;BME280;39663;45.432;28.050;2024-01-11T02:33:08;102267.13;;;11.16;43.32
52291;BME280;39663;45.432;28.050;2024-01-11T02:33:41;102268.22;;;11.29;43.26
52291;BME280;39663;45.432;28.050;2024-01-11T02:34:13;102266.07;;;11.38;43.17
52291;BME280;39663;45.432;28.050;2024-01-11T02:34:45;102265.45;;;11.26;43.13
52291;BME280;39663;45.432;28.050;2024-01-11T02:35:17;102263.01;;;11.18;43.06
52291;BME280;39663;45.432;28.050;2024-01-11T02:35:49;102263.70;;;11.21;42.90
52291;BME280;39663;45.432;28.050;2024-01-11T02:36:21;102264.26;;;11.18;42.96
52291;BME280;39663;45.432;28.050;2024-01-11T02:36:53;102264.20;;;11.29;43.04
52291;BME280;39663;45.432;28.050;2024-01-11T02:37:25;102264.02;;;11.22;43.00
52291;BME280;39663;45.432;28.050;2024-01-11T02:37:58;102263.96;;;11.31;43.00
52291;BME280;39663;45.432;28.050;2024-01-11T02:38:31;102263.10;;;11.19;42.94
52291;BME280;39663;45.432;28.050;2024-01-11T02:39:02;102260.66;;;11.55;42.95
52291;BME280;39663;45.432;28.050;2024-01-11T02:39:35;102264.21;;;11.43;42.92
52291;BME280;39663;45.432;28.050;2024-01-11T02:40:09;102265.05;;;11.45;42.72
52291;BME280;39663;45.432;28.050;2024-01-11T02:40:40;102265.97;;;11.26;42.91
52291;BME280;39663;45.432;28.050;2024-01-11T02:41:16;102265.56;;;11.32;42.81
52291;BME280;39663;45.432;28.050;2024-01-11T02:41:49;102263.91;;;11.72;42.73
52291;BME280;39663;45.432;28.050;2024-01-11T02:42:21;102267.60;;;11.33;42.48
52291;BME280;39663;45.432;28.050;2024-01-11T02:42:55;102266.23;;;11.22;42.87
52291;BME280;39663;45.432;28.050;2024-01-11T02:43:26;102266.99;;;11.26;42.65
52291;BME280;39663;45.432;28.050;2024-01-11T02:43:58;102266.97;;;11.28;42.85
52291;BME280;39663;45.432;28.050;2024-01-11T02:44:31;102267.60;;;11.30;42.63
52291;BME280;39663;45.432;28.050;2024-01-11T02:45:03;102266.25;;;11.26;42.58
52291;BME280;39663;45.432;28.050;2024-01-11T02:45:36;102265.77;;;11.32;42.69
52291;BME280;39663;45.432;28.050;2024-01-11T02:46:08;102266.45;;;11.35;42.69
52291;BME280;39663;45.432;28.050;2024-01-11T02:46:40;102264.01;;;11.31;42.61
52291;BME280;39663;45.432;28.050;2024-01-11T02:47:13;102262.19;;;11.25;42.67
52291;BME280;39663;45.432;28.050;2024-01-11T02:47:45;102263.63;;;11.27;42.59
52291;BME280;39663;45.432;28.050;2024-01-11T02:48:18;102261.72;;;11.28;42.44
52291;BME280;39663;45.432;28.050;2024-01-11T02:48:50;102260.68;;;11.26;42.59
52291;BME280;39663;45.432;28.050;2024-01-11T02:49:22;102259.03;;;11.46;41.99
52291;BME280;39663;45.432;28.050;2024-01-11T02:49:55;102259.08;;;11.43;42.07
52291;BME280;39663;45.432;28.050;2024-01-11T02:50:28;102259.36;;;11.24;42.18
52291;BME280;39663;45.432;28.050;2024-01-11T02:51:00;102259.60;;;11.37;42.00
52291;BME280;39663;45.432;28.050;2024-01-11T02:51:31;102258.74;;;11.15;41.84
52291;BME280;39663;45.432;28.050;2024-01-11T02:52:04;102256.77;;;11.48;42.01
52291;BME280;39663;45.432;28.050;2024-01-11T02:52:35;102258.92;;;11.53;42.33
52291;BME280;39663;45.432;28.050;2024-01-11T02:53:07;102257.52;;;11.10;42.09
52291;BME280;39663;45.432;28.050;2024-01-11T02:53:39;102257.03;;;11.08;42.23
52291;BME280;39663;45.432;28.050;2024-01-11T02:54:11;102255.26;;;11.15;42.13
52291;BME280;39663;45.432;28.050;2024-01-11T02:54:43;102257.27;;;11.23;42.00
52291;BME280;39663;45.432;28.050;2024-01-11T02:55:14;102254.65;;;11.00;42.41
52291;BME280;39663;45.432;28.050;2024-01-11T02:55:50;102255.01;;;11.38;42.16
52291;BME280;39663;45.432;28.050;2024-01-11T02:56:24;102254.26;;;11.19;42.30
52291;BME280;39663;45.432;28.050;2024-01-11T02:56:56;102252.80;;;11.02;42.41